RJEB

Monbetsu Airport

Airport
ICAO code
RJEB
IATA Code
MBE
Summary
ICAO Region
APAC
ICAO Territory
Location

Monbetsu, Hokkaidō

Serving
Monbetsu
Elevation
58 ft
Coordinates
44° 18' 24" N , 143° 24' 25" E
KCC
Metar
Observation
RJEB 300000Z VRB01KT 9999 FEW030 BKN/// M11/M19 Q1011
Station
Mombetsu Airport
Date/Time
2023-01-30 00:00:00
Wind speed
01 kts
Lowest cloud amount
few clouds
Temperature
-11°C
Dew point
-19°C
Humidity
51%
QNH
1011 hPa
Weather condition
n/a

Monbetsu Airport or Okhotsk Monbetsu Airport, is an airport located 3.8nm southeast of Monbetsu, a city on the Sea of Okhotsk in Hokkaidō, Japan.

Climatology

Humid continental climate (Köppen climate classification Dfb)

Runways

Designator Length Width Surface Rops
14/32 2000 45 ASP No/No

Airport map

Aerial View

SKYbrary Partners:

Safety knowledge contributed by: